Time;durP1;ratioP1;P1;durP2;ratioP2;P2;SDS_P1;SDS_P2;PMS_P1;PMS_P2;Temp;Humidity;BMP_temperature;BMP_pressure;BME280_temperature;BME280_humidity;BME280_pressure;Samples;Min_cycle;Max_cycle;Signal;HPM_P1;HPM_P2
2021/11/10 00:02:14;;;;;;;0.60;0.60;;;10.30;99.90;;;;;;5035295;28;20668;-82
2021/11/10 00:04:40;;;;;;;0.68;0.68;;;10.30;99.90;;;;;;5037837;28;20214;-83
2021/11/10 00:07:07;;;;;;;0.60;0.60;;;10.30;99.90;;;;;;5036813;28;20201;-84
2021/11/10 00:09:32;;;;;;;0.60;0.60;;;10.30;99.90;;;;;;5036791;28;20215;-85
2021/11/10 00:11:58;;;;;;;0.60;0.60;;;10.30;99.90;;;;;;5036633;28;20219;-84
2021/11/10 00:14:24;;;;;;;0.52;0.52;;;10.30;99.90;;;;;;5036499;28;20201;-84
2021/11/10 00:16:52;;;;;;;0.60;0.60;;;10.30;99.90;;;;;;5036419;28;20696;-84
2021/11/10 00:19:18;;;;;;;0.60;0.60;;;10.30;99.90;;;;;;5038088;28;20205;-83
2021/11/10 00:21:44;;;;;;;0.60;0.60;;;10.20;99.90;;;;;;5036498;28;20258;-83
2021/11/10 00:24:10;;;;;;;0.50;0.50;;;10.20;99.90;;;;;;5036757;28;20240;-83
2021/11/10 00:26:36;;;;;;;0.60;0.60;;;10.20;99.90;;;;;;5037574;28;20197;-84
2021/11/10 00:29:03;;;;;;;0.77;0.77;;;10.20;99.90;;;;;;5036254;28;20576;-85
2021/11/10 00:31:29;;;;;;;0.60;0.60;;;10.20;99.90;;;;;;5036291;28;20208;-84
2021/11/10 00:33:54;;;;;;;0.60;0.60;;;10.20;99.90;;;;;;5036320;28;20217;-85
2021/11/10 00:36:20;;;;;;;0.60;0.60;;;10.30;99.90;;;;;;5036016;28;20266;-84
2021/11/10 00:38:47;;;;;;;0.60;0.60;;;10.30;99.90;;;;;;5036463;28;20304;-85
2021/11/10 00:41:14;;;;;;;0.60;0.60;;;10.30;99.90;;;;;;5036247;28;20271;-84
2021/11/10 00:43:40;;;;;;;0.60;0.60;;;10.20;99.90;;;;;;5036251;28;20352;-84
2021/11/10 00:46:06;;;;;;;0.60;0.60;;;10.20;99.90;;;;;;5035942;28;20205;-84
2021/11/10 00:48:32;;;;;;;0.50;0.50;;;10.20;99.90;;;;;;5036152;28;20202;-84
2021/11/10 00:50:57;;;;;;;0.60;0.60;;;10.20;99.90;;;;;;5054100;28;20708;-84
2021/11/10 00:53:24;;;;;;;0.60;0.60;;;10.20;99.90;;;;;;5035763;28;20205;-84
2021/11/10 00:55:50;;;;;;;0.60;0.60;;;10.20;99.90;;;;;;5035924;28;20208;-84
2021/11/10 00:58:16;;;;;;;0.60;0.60;;;10.20;99.90;;;;;;5053937;28;20255;-83
2021/11/10 01:00:42;;;;;;;0.55;0.55;;;10.20;99.90;;;;;;5037079;28;20657;-84
2021/11/10 01:03:08;;;;;;;0.60;0.60;;;10.20;99.90;;;;;;5035880;28;20208;-83
2021/11/10 01:05:35;;;;;;;0.52;0.52;;;10.20;99.90;;;;;;5035414;28;20205;-84
2021/11/10 01:08:03;;;;;;;0.60;0.60;;;10.20;99.90;;;;;;5037011;28;20200;-84
2021/11/10 01:10:30;;;;;;;0.70;0.70;;;10.20;99.90;;;;;;5033953;28;20194;-83
2021/11/10 01:12:56;;;;;;;0.63;0.63;;;10.10;99.90;;;;;;5035570;28;20326;-83
2021/11/10 01:15:23;;;;;;;0.73;0.73;;;10.20;99.90;;;;;;5037503;28;20660;-83
2021/11/10 01:17:49;;;;;;;0.73;0.73;;;10.10;99.90;;;;;;5036016;28;20205;-83
2021/11/10 01:20:15;;;;;;;0.68;0.68;;;10.10;99.90;;;;;;5052697;28;20194;-84
2021/11/10 01:22:41;;;;;;;0.60;0.60;;;10.10;99.90;;;;;;5036010;28;20212;-83
2021/11/10 01:25:09;;;;;;;0.50;0.50;;;10.10;99.90;;;;;;5054087;28;20273;-83
2021/11/10 01:27:35;;;;;;;0.40;0.40;;;10.10;99.90;;;;;;5036064;28;20669;-84
2021/11/10 01:30:01;;;;;;;0.52;0.52;;;10.10;99.90;;;;;;5054167;28;20197;-84
2021/11/10 01:32:27;;;;;;;0.60;0.60;;;10.10;99.90;;;;;;5035141;28;20201;-83
2021/11/10 01:34:52;;;;;;;0.50;0.50;;;10.10;99.90;;;;;;5035075;28;20680;-83
2021/11/10 01:37:19;;;;;;;0.60;0.60;;;10.10;99.90;;;;;;5035519;28;20212;-84
2021/11/10 01:39:45;;;;;;;0.60;0.60;;;10.10;99.90;;;;;;5054447;28;20724;-84
2021/11/10 01:42:11;;;;;;;0.70;0.70;;;10.10;99.90;;;;;;5034959;28;20688;-85
2021/11/10 01:44:38;;;;;;;0.50;0.50;;;10.10;99.90;;;;;;5034897;28;20252;-83
2021/11/10 01:47:11;;;;;;;0.50;0.50;;;10.10;99.90;;;;;;5035332;28;20198;-83
2021/11/10 01:49:39;;;;;;;0.40;0.40;;;10.10;99.90;;;;;;5052711;28;20633;-84
2021/11/10 01:52:05;;;;;;;0.60;0.60;;;10.20;99.90;;;;;;5034968;28;20201;-84
2021/11/10 01:54:33;;;;;;;0.60;0.60;;;10.20;99.90;;;;;;5036043;28;20518;-84
2021/11/10 01:57:01;;;;;;;0.60;0.60;;;10.10;99.90;;;;;;5033359;28;20295;-83
2021/11/10 02:00:00;;;;;;;0.60;0.60;;;10.10;99.90;;;;;;5034716;28;20197;-83
2021/11/10 02:02:29;;;;;;;1.00;0.85;;;10.10;99.90;;;;;;5034153;28;20692;-83
2021/11/10 02:04:55;;;;;;;0.63;0.63;;;10.10;99.90;;;;;;5034471;28;20315;-83
2021/11/10 02:07:21;;;;;;;0.60;0.60;;;10.00;99.90;;;;;;5034474;28;20292;-83
2021/11/10 02:09:48;;;;;;;0.60;0.60;;;10.10;99.90;;;;;;5034671;28;20732;-83
2021/11/10 02:12:15;;;;;;;0.70;0.70;;;10.10;99.90;;;;;;5034673;28;20236;-83
2021/11/10 02:14:41;;;;;;;1.05;0.80;;;10.10;99.90;;;;;;5034389;28;20721;-83
2021/11/10 02:17:11;;;;;;;0.70;0.70;;;10.00;99.90;;;;;;5034386;28;20652;-83
2021/11/10 02:19:37;;;;;;;0.50;0.50;;;10.10;99.90;;;;;;5034123;28;20201;-83
2021/11/10 02:22:03;;;;;;;3.55;1.55;;;10.10;99.90;;;;;;5051797;28;20208;-83
2021/11/10 02:24:31;;;;;;;0.75;0.75;;;10.00;99.90;;;;;;5034180;28;20205;-83
2021/11/10 02:26:57;;;;;;;0.68;0.68;;;10.00;99.90;;;;;;5034308;28;20206;-83
2021/11/10 02:29:26;;;;;;;0.60;0.60;;;10.00;99.90;;;;;;5034034;28;20641;-83
2021/11/10 02:31:54;;;;;;;0.60;0.60;;;10.00;99.90;;;;;;5034283;28;20204;-83
2021/11/10 02:34:20;;;;;;;0.50;0.50;;;10.00;99.90;;;;;;5034306;28;20208;-82
2021/11/10 02:36:46;;;;;;;1.10;0.85;;;10.00;99.90;;;;;;5031850;28;20225;-84
2021/11/10 02:39:23;;;;;;;0.50;0.50;;;9.90;99.90;;;;;;5029919;28;20205;-83
2021/11/10 02:41:48;;;;;;;0.70;0.70;;;9.90;99.90;;;;;;5052235;28;20284;-83
2021/11/10 02:44:16;;;;;;;0.60;0.60;;;9.80;99.90;;;;;;5051905;28;20288;-84
2021/11/10 02:46:43;;;;;;;0.68;0.68;;;9.80;99.90;;;;;;5034173;28;20205;-83
2021/11/10 02:49:10;;;;;;;0.60;0.60;;;9.70;99.90;;;;;;5035405;28;20198;-83
2021/11/10 02:51:36;;;;;;;0.60;0.60;;;9.70;99.90;;;;;;5033814;28;20210;-83
2021/11/10 02:54:08;;;;;;;0.65;0.65;;;9.60;99.90;;;;;;5035163;28;20207;-83
2021/11/10 02:56:34;;;;;;;0.60;0.60;;;9.60;99.90;;;;;;5033536;28;20217;-83
2021/11/10 02:59:00;;;;;;;0.60;0.60;;;9.60;99.90;;;;;;5033833;28;20209;-83
2021/11/10 03:01:25;;;;;;;0.55;0.55;;;9.50;99.90;;;;;;5032506;28;20201;-82
2021/11/10 03:03:51;;;;;;;7.38;1.55;;;9.40;99.90;;;;;;5033643;28;20201;-84
2021/11/10 03:06:17;;;;;;;0.63;0.63;;;9.40;99.90;;;;;;5051586;28;20605;-84
2021/11/10 03:08:42;;;;;;;0.75;0.75;;;9.30;99.90;;;;;;5044574;28;20198;-85
2021/11/10 03:11:08;;;;;;;0.60;0.60;;;9.20;99.90;;;;;;5033695;28;20208;-84
2021/11/10 03:13:39;;;;;;;0.70;0.70;;;9.10;99.90;;;;;;5033305;28;20330;-84
2021/11/10 03:16:04;;;;;;;0.60;0.60;;;9.10;99.90;;;;;;5051460;28;20197;-84
2021/11/10 03:18:30;;;;;;;0.70;0.70;;;9.00;99.90;;;;;;5033518;28;20204;-84
2021/11/10 03:20:56;;;;;;;0.70;0.70;;;8.90;99.90;;;;;;5052593;28;20300;-83
2021/11/10 03:23:22;;;;;;;0.70;0.70;;;8.80;99.90;;;;;;5033097;28;20291;-84
2021/11/10 03:25:47;;;;;;;0.60;0.60;;;8.80;99.90;;;;;;5051472;28;20259;-84
2021/11/10 03:28:13;;;;;;;0.60;0.60;;;8.70;99.90;;;;;;5033071;28;20205;-84
2021/11/10 03:30:39;;;;;;;0.68;0.68;;;8.80;99.90;;;;;;5016924;28;20202;-84
2021/11/10 03:33:05;;;;;;;0.63;0.63;;;8.90;99.90;;;;;;5032443;28;20686;-84
2021/11/10 03:35:31;;;;;;;0.60;0.60;;;9.00;99.90;;;;;;5050666;28;20615;-82
2021/11/10 03:37:56;;;;;;;0.60;0.60;;;9.00;99.90;;;;;;5032276;28;20300;-82
2021/11/10 03:40:22;;;;;;;0.60;0.60;;;9.00;99.90;;;;;;5032360;28;20202;-83
2021/11/10 03:42:48;;;;;;;0.50;0.50;;;9.00;99.90;;;;;;5033441;28;20244;-84
2021/11/10 03:45:14;;;;;;;0.60;0.60;;;9.00;99.90;;;;;;5032556;28;20201;-83
2021/11/10 03:47:40;;;;;;;0.70;0.70;;;9.00;99.90;;;;;;5051415;28;20209;-85
2021/11/10 03:50:07;;;;;;;0.70;0.70;;;8.90;99.90;;;;;;5050489;28;20204;-84
2021/11/10 03:52:33;;;;;;;0.60;0.60;;;8.90;99.90;;;;;;5032254;28;20259;-83
2021/11/10 03:54:58;;;;;;;0.60;0.60;;;8.90;99.90;;;;;;5032410;28;20205;-83
2021/11/10 03:57:24;;;;;;;0.60;0.60;;;8.90;99.90;;;;;;5051460;28;20730;-84
2021/11/10 03:59:50;;;;;;;0.70;0.70;;;8.90;99.90;;;;;;5032297;28;20201;-83
2021/11/10 04:02:16;;;;;;;0.60;0.60;;;8.90;99.90;;;;;;5032112;28;20315;-83
2021/11/10 04:04:42;;;;;;;0.70;0.70;;;8.90;99.90;;;;;;5030179;28;20297;-84
2021/11/10 04:07:07;;;;;;;0.70;0.70;;;8.90;99.90;;;;;;5032433;28;20292;-84
2021/11/10 04:09:33;;;;;;;0.70;0.70;;;8.80;99.90;;;;;;5031236;28;20194;-84
2021/11/10 04:11:59;;;;;;;0.60;0.60;;;8.90;99.90;;;;;;5032097;28;20229;-85
2021/11/10 04:14:25;;;;;;;0.50;0.50;;;8.90;99.90;;;;;;5031975;28;20233;-83
2021/11/10 04:16:50;;;;;;;0.60;0.60;;;8.80;99.90;;;;;;5049989;28;20201;-83
2021/11/10 04:19:16;;;;;;;0.90;0.90;;;8.80;99.90;;;;;;5033300;28;20209;-84
2021/11/10 04:21:42;;;;;;;0.57;0.57;;;8.80;99.90;;;;;;5049682;28;20189;-84
2021/11/10 04:24:08;;;;;;;0.70;0.70;;;8.80;99.90;;;;;;5031864;28;20244;-84
2021/11/10 04:26:37;;;;;;;0.80;0.80;;;8.80;99.90;;;;;;5049997;28;20206;-84
2021/11/10 04:29:04;;;;;;;0.52;0.52;;;8.80;99.90;;;;;;5050013;28;20205;-83
2021/11/10 04:31:30;;;;;;;0.63;0.63;;;8.80;99.90;;;;;;5031417;28;20291;-84
2021/11/10 04:33:57;;;;;;;0.60;0.60;;;8.80;99.90;;;;;;5031833;28;20296;-84
2021/11/10 04:36:29;;;;;;;0.47;0.47;;;8.80;99.90;;;;;;4981748;28;1955746;-84
2021/11/10 04:38:55;;;;;;;0.60;0.60;;;8.80;99.90;;;;;;5033953;28;20225;-85
2021/11/10 04:41:25;;;;;;;0.50;0.50;;;8.80;99.90;;;;;;5033609;28;20681;-85
2021/11/10 04:43:52;;;;;;;0.60;0.60;;;8.90;99.90;;;;;;5051392;28;20232;-86
2021/11/10 04:46:34;;;;;;;0.82;0.82;;;8.90;99.90;;;;;;5036575;28;20236;-86
2021/11/10 04:49:00;;;;;;;0.68;0.68;;;8.90;99.90;;;;;;5036114;28;20198;-84
2021/11/10 04:51:27;;;;;;;0.63;0.63;;;9.00;99.90;;;;;;5035961;28;20260;-85
2021/11/10 04:53:56;;;;;;;0.60;0.60;;;9.00;99.90;;;;;;5054099;28;20193;-84
2021/11/10 04:56:21;;;;;;;0.60;0.60;;;9.00;99.90;;;;;;5035839;28;20209;-84
2021/11/10 04:58:48;;;;;;;0.60;0.60;;;9.10;99.90;;;;;;5053898;28;20202;-85
2021/11/10 05:01:18;;;;;;;0.55;0.55;;;9.20;99.90;;;;;;5035708;28;20231;-83
2021/11/10 05:03:44;;;;;;;0.70;0.70;;;9.20;99.90;;;;;;5035755;28;20213;-83
2021/11/10 05:06:10;;;;;;;0.57;0.57;;;9.10;99.90;;;;;;5036457;28;20201;-84
2021/11/10 05:08:35;;;;;;;0.63;0.63;;;9.10;99.90;;;;;;5035522;28;20205;-85
2021/11/10 05:11:02;;;;;;;0.60;0.60;;;9.10;99.90;;;;;;5035714;28;20194;-84
2021/11/10 05:13:27;;;;;;;0.60;0.60;;;9.10;99.90;;;;;;5053280;28;20197;-84
2021/11/10 05:15:53;;;;;;;0.70;0.70;;;9.20;99.90;;;;;;5035768;28;20237;-85
2021/11/10 05:18:19;;;;;;;0.98;0.98;;;9.10;99.90;;;;;;5035586;28;20205;-84
2021/11/10 05:20:47;;;;;;;0.70;0.70;;;9.20;99.90;;;;;;5035428;28;20681;-83
2021/11/10 05:23:13;;;;;;;0.60;0.60;;;9.30;99.90;;;;;;5035461;28;20205;-84
2021/11/10 05:25:38;;;;;;;0.70;0.70;;;9.30;99.90;;;;;;5035471;28;20315;-83
2021/11/10 05:28:04;;;;;;;0.70;0.70;;;9.30;99.90;;;;;;5035591;28;20201;-84
2021/11/10 05:30:30;;;;;;;1.23;1.13;;;9.30;99.90;;;;;;5035488;28;20197;-84
2021/11/10 05:32:55;;;;;;;0.50;0.50;;;9.20;99.90;;;;;;5035425;28;20211;-84
2021/11/10 05:35:21;;;;;;;1.52;1.23;;;9.20;99.90;;;;;;5034884;28;20287;-84
2021/11/10 05:37:47;;;;;;;0.65;0.65;;;9.10;99.90;;;;;;5053276;28;20201;-84
2021/11/10 05:40:13;;;;;;;0.60;0.60;;;9.10;99.90;;;;;;5034968;28;20658;-83
2021/11/10 05:42:39;;;;;;;5.97;1.27;;;9.10;99.90;;;;;;5034923;28;20209;-84
2021/11/10 05:45:06;;;;;;;0.60;0.60;;;9.00;99.90;;;;;;5054277;28;20232;-84
2021/11/10 05:47:32;;;;;;;0.68;0.68;;;8.90;99.90;;;;;;5034764;28;20232;-83
2021/11/10 05:49:58;;;;;;;0.90;0.90;;;8.90;99.90;;;;;;5035037;28;20233;-83
2021/11/10 05:52:24;;;;;;;0.73;0.73;;;8.90;99.90;;;;;;5054111;28;20727;-84
2021/11/10 05:54:49;;;;;;;0.75;0.75;;;8.90;99.90;;;;;;5034759;28;20243;-84
2021/11/10 05:57:17;;;;;;;0.75;0.75;;;8.90;99.90;;;;;;5035610;28;20206;-85
2021/11/10 05:59:44;;;;;;;0.70;0.70;;;8.90;99.90;;;;;;5034663;28;20216;-85
2021/11/10 06:02:10;;;;;;;0.60;0.60;;;8.80;99.90;;;;;;5053142;28;20688;-86
2021/11/10 06:04:37;;;;;;;0.60;0.60;;;8.70;99.90;;;;;;5033732;28;20724;-85
2021/11/10 06:07:04;;;;;;;0.70;0.70;;;8.70;99.90;;;;;;5040877;28;20548;-84
2021/11/10 06:09:31;;;;;;;0.68;0.68;;;8.70;99.90;;;;;;5052750;28;20716;-83
2021/11/10 06:11:57;;;;;;;0.60;0.60;;;8.70;99.90;;;;;;5034392;28;20633;-84
2021/11/10 06:14:23;;;;;;;0.60;0.60;;;8.70;99.90;;;;;;5035827;28;20215;-84
2021/11/10 06:16:49;;;;;;;0.70;0.70;;;8.70;99.90;;;;;;5034446;28;20197;-84
2021/11/10 06:19:15;;;;;;;0.60;0.60;;;8.70;99.90;;;;;;5034609;28;20201;-87
2021/11/10 06:21:41;;;;;;;1.95;1.10;;;8.70;99.90;;;;;;5034349;28;20283;-84
2021/11/10 06:24:07;;;;;;;0.70;0.70;;;8.70;99.90;;;;;;5034569;28;20210;-83
2021/11/10 06:26:32;;;;;;;0.70;0.70;;;8.80;99.90;;;;;;5034167;28;20280;-83
2021/11/10 06:28:58;;;;;;;0.70;0.70;;;8.90;99.90;;;;;;5052514;28;20251;-83
2021/11/10 06:31:24;;;;;;;0.65;0.65;;;8.90;99.90;;;;;;5034293;28;20292;-83
2021/11/10 06:33:50;;;;;;;0.63;0.63;;;8.90;99.90;;;;;;5034001;28;20209;-84
2021/11/10 06:36:16;;;;;;;0.70;0.70;;;8.90;99.90;;;;;;5033813;28;20260;-82
2021/11/10 06:38:44;;;;;;;0.60;0.60;;;8.80;99.90;;;;;;5035306;28;20575;-84
2021/11/10 06:41:10;;;;;;;0.50;0.50;;;8.80;99.90;;;;;;5033998;28;20209;-84
2021/11/10 06:43:36;;;;;;;0.70;0.70;;;8.80;99.90;;;;;;5051585;28;20691;-84
2021/11/10 06:46:02;;;;;;;1.00;1.00;;;8.80;99.90;;;;;;5035117;28;20201;-85
2021/11/10 06:48:31;;;;;;;1.23;1.13;;;8.90;99.90;;;;;;5034973;28;20205;-84
2021/11/10 06:50:58;;;;;;;0.65;0.65;;;8.80;99.90;;;;;;5033940;28;20613;-84
2021/11/10 06:53:24;;;;;;;0.85;0.85;;;8.90;99.90;;;;;;5033688;28;20661;-84
2021/11/10 06:55:49;;;;;;;0.50;0.50;;;8.80;99.90;;;;;;5033070;28;20212;-83
2021/11/10 06:58:15;;;;;;;0.77;0.77;;;8.80;99.90;;;;;;5035374;28;20224;-83
2021/11/10 07:00:41;;;;;;;0.95;0.93;;;8.80;99.90;;;;;;5034327;28;20217;-84
2021/11/10 07:03:07;;;;;;;0.60;0.60;;;8.70;99.90;;;;;;5033645;28;20205;-84
2021/11/10 07:05:33;;;;;;;0.60;0.60;;;8.70;99.90;;;;;;5052404;28;20197;-85
2021/11/10 07:07:58;;;;;;;0.60;0.60;;;8.70;99.90;;;;;;5033484;28;20204;-85
2021/11/10 07:10:24;;;;;;;0.70;0.70;;;8.70;99.90;;;;;;5051172;28;20197;-84
2021/11/10 07:12:50;;;;;;;0.60;0.60;;;8.70;99.90;;;;;;5035078;28;20189;-85
2021/11/10 07:15:16;;;;;;;0.70;0.70;;;8.80;99.90;;;;;;5033977;28;20194;-85
2021/11/10 07:17:41;;;;;;;0.60;0.60;;;8.80;99.90;;;;;;5034786;28;20288;-86
2021/11/10 07:20:08;;;;;;;0.90;0.90;;;8.70;99.90;;;;;;5032546;28;20224;-85
2021/11/10 07:22:34;;;;;;;0.70;0.70;;;8.70;99.90;;;;;;5030341;28;20206;-87
2021/11/10 07:25:00;;;;;;;0.70;0.70;;;8.80;99.90;;;;;;5033328;28;20216;-85
2021/11/10 07:27:26;;;;;;;1.05;1.00;;;8.80;99.90;;;;;;5033793;28;20205;-85
2021/11/10 07:29:51;;;;;;;0.65;0.65;;;8.70;99.90;;;;;;5033771;28;20651;-86
2021/11/10 07:32:17;;;;;;;0.70;0.70;;;8.70;99.90;;;;;;5033364;28;20225;-85
2021/11/10 07:34:43;;;;;;;0.80;0.80;;;8.70;99.90;;;;;;5051062;28;20213;-86
2021/11/10 07:37:09;;;;;;;0.63;0.63;;;8.70;99.90;;;;;;5033441;28;20205;-86
2021/11/10 07:39:35;;;;;;;0.95;0.95;;;8.80;99.90;;;;;;5033271;28;20206;-86
2021/11/10 07:42:00;;;;;;;0.60;0.60;;;8.80;99.90;;;;;;5033417;28;20223;-84
2021/11/10 07:44:27;;;;;;;0.70;0.70;;;8.80;99.90;;;;;;5033029;28;20665;-84
2021/11/10 07:46:55;;;;;;;0.70;0.70;;;8.70;99.90;;;;;;5034475;28;20209;-84
2021/11/10 07:49:22;;;;;;;0.60;0.60;;;8.70;99.90;;;;;;5033059;28;20583;-84
2021/11/10 07:51:49;;;;;;;1.75;1.65;;;8.70;99.90;;;;;;5034524;28;20300;-83
2021/11/10 07:54:14;;;;;;;0.63;0.63;;;8.70;99.90;;;;;;5033202;28;20300;-83
2021/11/10 07:56:41;;;;;;;0.70;0.70;;;8.70;99.90;;;;;;5032838;28;20308;-84
2021/11/10 07:59:07;;;;;;;0.70;0.70;;;8.70;99.90;;;;;;5026736;28;20205;-83
2021/11/10 08:01:33;;;;;;;0.60;0.60;;;8.70;99.90;;;;;;5026101;28;20645;-86
2021/11/10 08:04:02;;;;;;;0.73;0.73;;;8.70;99.90;;;;;;5032734;28;20287;-85
2021/11/10 08:06:30;;;;;;;0.82;0.80;;;8.70;99.90;;;;;;5044041;28;20201;-84
2021/11/10 08:08:55;;;;;;;0.63;0.63;;;8.70;99.90;;;;;;5032902;28;20212;-84
2021/11/10 08:11:21;;;;;;;2.38;1.88;;;8.60;99.90;;;;;;5032846;28;20589;-84
2021/11/10 08:13:47;;;;;;;0.70;0.70;;;8.60;99.90;;;;;;5050816;28;20239;-84
2021/11/10 08:16:13;;;;;;;0.70;0.70;;;8.70;99.90;;;;;;5032752;28;20288;-84
2021/11/10 08:18:38;;;;;;;0.60;0.60;;;8.70;99.90;;;;;;5033072;28;20209;-85
2021/11/10 08:21:04;;;;;;;0.60;0.60;;;8.70;99.90;;;;;;5036526;28;20208;-84
2021/11/10 08:23:30;;;;;;;0.60;0.60;;;8.80;99.90;;;;;;5036284;28;20641;-85
2021/11/10 08:25:58;;;;;;;0.60;0.60;;;8.80;99.90;;;;;;5036564;28;20201;-84
2021/11/10 08:28:24;;;;;;;2.15;1.23;;;8.80;99.90;;;;;;5036439;28;20201;-85
2021/11/10 08:30:50;;;;;;;0.70;0.70;;;8.90;99.90;;;;;;5036642;28;20193;-85
2021/11/10 08:33:17;;;;;;;0.65;0.65;;;8.90;99.90;;;;;;5036851;28;20560;-85
2021/11/10 08:35:43;;;;;;;0.63;0.63;;;8.90;99.90;;;;;;5036577;28;20217;-85
2021/11/10 08:38:09;;;;;;;0.65;0.65;;;9.00;99.90;;;;;;5054820;28;20207;-85
2021/11/10 08:40:36;;;;;;;0.63;0.63;;;9.00;99.90;;;;;;5054373;28;20661;-84
2021/11/10 08:43:02;;;;;;;0.65;0.65;;;9.10;99.90;;;;;;5036129;28;20212;-84
2021/11/10 08:45:32;;;;;;;0.70;0.70;;;9.10;99.90;;;;;;5036440;28;20226;-83
2021/11/10 08:47:58;;;;;;;0.60;0.60;;;9.10;99.90;;;;;;5054537;28;20194;-83
2021/11/10 08:50:26;;;;;;;0.60;0.60;;;9.10;99.90;;;;;;5036118;28;20210;-83
2021/11/10 08:52:53;;;;;;;0.63;0.63;;;9.20;99.90;;;;;;5036236;28;20665;-83
2021/11/10 08:55:19;;;;;;;0.80;0.77;;;9.20;99.90;;;;;;5037219;28;20292;-83
2021/11/10 08:57:47;;;;;;;0.60;0.60;;;9.20;99.90;;;;;;5037117;28;20288;-83
2021/11/10 09:00:17;;;;;;;0.70;0.70;;;9.20;99.90;;;;;;5054008;28;20194;-84
2021/11/10 09:02:44;;;;;;;5.25;1.88;;;9.30;99.90;;;;;;5035769;28;20284;-83
2021/11/10 09:05:10;;;;;;;9.15;1.50;;;9.30;99.90;;;;;;5037209;28;20308;-83
2021/11/10 09:07:36;;;;;;;0.60;0.60;;;9.40;99.90;;;;;;5035923;28;20190;-84
2021/11/10 09:10:07;;;;;;;0.70;0.70;;;9.40;99.90;;;;;;5035993;28;20570;-83
2021/11/10 09:12:33;;;;;;;0.70;0.70;;;9.40;99.90;;;;;;5036983;28;20197;-83
2021/11/10 09:15:00;;;;;;;1.00;0.90;;;9.40;99.90;;;;;;5035639;28;20297;-83
2021/11/10 09:17:34;;;;;;;0.60;0.60;;;9.40;99.90;;;;;;5035705;28;20308;-84
2021/11/10 09:19:59;;;;;;;1.00;0.90;;;9.40;99.90;;;;;;5053763;28;20197;-86
2021/11/10 09:22:25;;;;;;;0.70;0.70;;;9.40;99.90;;;;;;5036933;28;20274;-84
2021/11/10 09:24:51;;;;;;;0.70;0.70;;;9.40;99.90;;;;;;5035477;28;20209;-85
2021/11/10 09:27:17;;;;;;;0.60;0.60;;;9.40;99.90;;;;;;5035539;28;20258;-84
2021/11/10 09:29:43;;;;;;;0.80;0.80;;;9.50;99.90;;;;;;5035090;28;20248;-85
2021/11/10 09:32:09;;;;;;;12.85;1.35;;;9.60;99.90;;;;;;5035479;28;20217;-84
2021/11/10 09:34:36;;;;;;;0.60;0.60;;;9.60;99.90;;;;;;5035110;28;20267;-85
2021/11/10 09:37:02;;;;;;;0.70;0.70;;;9.60;99.90;;;;;;5035465;28;20213;-85
2021/11/10 09:39:28;;;;;;;0.88;0.88;;;9.70;99.90;;;;;;5053154;28;20255;-85
2021/11/10 09:41:54;;;;;;;1.25;1.15;;;9.80;99.90;;;;;;5035224;28;20546;-84
2021/11/10 09:44:22;;;;;;;2.70;1.58;;;9.80;99.90;;;;;;5035893;28;20676;-84
2021/11/10 09:46:50;;;;;;;0.60;0.60;;;9.90;99.90;;;;;;5025984;28;20213;-84
2021/11/10 09:49:16;;;;;;;0.63;0.63;;;10.00;99.90;;;;;;5053534;28;20197;-84
2021/11/10 09:51:44;;;;;;;0.57;0.57;;;10.10;99.90;;;;;;5034872;28;20233;-84
2021/11/10 09:54:11;;;;;;;0.80;0.80;;;10.20;99.90;;;;;;5018848;28;20209;-84
2021/11/10 09:56:38;;;;;;;0.70;0.70;;;10.30;99.90;;;;;;5033644;28;20206;-84
2021/11/10 09:59:04;;;;;;;0.60;0.60;;;10.20;99.90;;;;;;5034980;28;20209;-84
2021/11/10 10:01:33;;;;;;;0.70;0.70;;;10.30;99.90;;;;;;5034765;28;20209;-84
2021/11/10 10:03:59;;;;;;;0.70;0.70;;;10.30;99.90;;;;;;5052773;28;20209;-83
2021/11/10 10:06:27;;;;;;;0.70;0.70;;;10.20;99.90;;;;;;5052557;28;20232;-83
2021/11/10 10:08:53;;;;;;;1.05;1.00;;;10.10;99.90;;;;;;5052677;28;20194;-83
2021/11/10 10:11:19;;;;;;;0.60;0.60;;;10.00;99.90;;;;;;5034588;28;20604;-83
2021/11/10 10:13:45;;;;;;;0.85;0.73;;;9.90;99.90;;;;;;5052607;28;20206;-83
2021/11/10 10:16:11;;;;;;;0.60;0.60;;;9.90;99.90;;;;;;5034641;28;20213;-83
2021/11/10 10:18:38;;;;;;;0.98;0.98;;;9.80;99.90;;;;;;5035666;28;20292;-84
2021/11/10 10:21:10;;;;;;;0.60;0.60;;;9.70;99.90;;;;;;5034333;28;20288;-83
2021/11/10 10:23:42;;;;;;;0.70;0.70;;;9.70;99.90;;;;;;5034166;28;20212;-82
2021/11/10 10:26:18;;;;;;;0.65;0.65;;;9.80;99.90;;;;;;5035846;28;20226;-83
2021/11/10 10:28:51;;;;;;;0.60;0.60;;;9.80;99.90;;;;;;5034371;28;20644;-83
2021/11/10 10:31:24;;;;;;;0.60;0.60;;;9.80;99.90;;;;;;5035775;28;20279;-83
2021/11/10 10:33:55;;;;;;;0.70;0.70;;;9.90;99.90;;;;;;5026774;28;20235;-83
2021/11/10 10:36:28;;;;;;;0.60;0.60;;;9.80;99.90;;;;;;5033766;28;20252;-84
2021/11/10 10:39:00;;;;;;;0.90;0.90;;;9.90;99.90;;;;;;5034021;28;20212;-83
2021/11/10 10:41:32;;;;;;;0.60;0.60;;;10.00;99.90;;;;;;5033068;28;20204;-84
2021/11/10 10:44:07;;;;;;;0.60;0.60;;;10.00;99.90;;;;;;5035257;28;20207;-84
2021/11/10 10:46:37;;;;;;;0.60;0.60;;;10.10;99.90;;;;;;5035686;28;20231;-86
2021/11/10 10:49:30;;;;;;;0.68;0.68;;;10.30;99.90;;;;;;5034036;28;20197;-85
2021/11/10 10:52:19;;;;;;;3.33;1.35;;;10.50;99.90;;;;;;5033828;28;20212;-84
2021/11/10 10:54:46;;;;;;;1.88;1.77;;;10.50;99.90;;;;;;5034012;28;20213;-85
2021/11/10 10:57:44;;;;;;;0.90;0.90;;;10.60;99.90;;;;;;5033776;28;20205;-84
2021/11/10 11:00:12;;;;;;;0.60;0.60;;;10.80;99.90;;;;;;5025095;28;20327;-85
2021/11/10 11:02:37;;;;;;;0.60;0.60;;;10.90;99.90;;;;;;5051332;28;20541;-84
2021/11/10 11:05:03;;;;;;;0.60;0.60;;;10.90;99.90;;;;;;5033727;28;20216;-84
2021/11/10 11:07:32;;;;;;;0.60;0.60;;;11.10;99.90;;;;;;5052930;28;20197;-84
2021/11/10 11:10:04;;;;;;;2.30;1.00;;;11.20;99.90;;;;;;5033587;28;20228;-85
2021/11/10 11:12:31;;;;;;;0.60;0.60;;;11.30;99.90;;;;;;5034114;28;20193;-85
2021/11/10 11:17:52;;;;;;;0.60;0.60;;;11.40;99.90;;;;;;5045407;28;20259;-85
2021/11/10 11:20:29;;;;;;;1.58;1.25;;;11.40;99.90;;;;;;5033615;28;20229;-86
2021/11/10 11:22:57;;;;;;;5.78;1.20;;;11.20;99.90;;;;;;5033452;28;20201;-85
2021/11/10 11:25:26;;;;;;;0.60;0.60;;;11.00;99.90;;;;;;5051546;28;20186;-85
2021/11/10 11:28:06;;;;;;;0.55;0.55;;;10.90;99.90;;;;;;5052739;28;20210;-85
2021/11/10 11:30:34;;;;;;;0.60;0.60;;;10.70;99.90;;;;;;5035757;28;20205;-87
2021/11/10 11:33:03;;;;;;;1.02;0.98;;;10.60;99.90;;;;;;5034858;28;20229;-87
2021/11/10 11:35:42;;;;;;;0.60;0.60;;;10.60;99.90;;;;;;5033773;28;20225;-86
2021/11/10 11:38:15;;;;;;;0.57;0.57;;;10.60;99.90;;;;;;5033490;28;20562;-86
2021/11/10 11:40:45;;;;;;;0.70;0.70;;;10.60;99.90;;;;;;5031656;28;20205;-86
2021/11/10 11:43:14;;;;;;;0.75;0.75;;;10.50;99.90;;;;;;5033419;28;20208;-84
2021/11/10 11:45:45;;;;;;;0.52;0.52;;;10.50;99.90;;;;;;5033203;28;20197;-84
2021/11/10 11:48:11;;;;;;;0.68;0.68;;;10.50;99.90;;;;;;5034215;28;20247;-84
2021/11/10 11:50:41;;;;;;;0.60;0.60;;;10.60;99.90;;;;;;5050869;28;20207;-84
2021/11/10 11:53:08;;;;;;;1.13;1.02;;;10.60;99.90;;;;;;5050828;28;20233;-84
2021/11/10 11:55:54;;;;;;;0.70;0.70;;;10.60;99.90;;;;;;5036966;28;20616;-84
2021/11/10 11:58:24;;;;;;;1.75;1.65;;;10.70;99.90;;;;;;5054986;28;20561;-85
2021/11/10 12:00:57;;;;;;;0.85;0.85;;;10.70;99.90;;;;;;5037057;28;20201;-86
2021/11/10 12:03:25;;;;;;;0.60;0.60;;;10.80;99.90;;;;;;5038220;28;20217;-86
2021/11/10 12:05:52;;;;;;;3.42;1.40;;;10.90;99.90;;;;;;5037084;28;20567;-86
2021/11/10 12:08:51;;;;;;;0.60;0.60;;;10.90;99.90;;;;;;5037938;28;20525;-86
2021/11/10 12:11:34;;;;;;;3.55;2.20;;;10.90;99.90;;;;;;5032818;28;20255;-89
2021/11/10 12:14:13;;;;;;;0.80;0.80;;;10.80;99.90;;;;;;5039624;28;20263;-87
2021/11/10 12:16:47;;;;;;;0.90;0.90;;;10.80;99.90;;;;;;5037267;28;20209;-88
2021/11/10 12:19:28;;;;;;;0.85;0.85;;;10.80;99.90;;;;;;5037984;28;20288;-90
2021/11/10 12:22:02;;;;;;;0.60;0.60;;;10.80;99.90;;;;;;5039301;28;20661;-89
2021/11/10 12:24:48;;;;;;;0.50;0.50;;;10.80;99.90;;;;;;5039231;28;20201;-90
2021/11/10 12:27:32;;;;;;;0.65;0.65;;;10.80;99.90;;;;;;5037676;28;20205;-89
2021/11/10 12:30:10;;;;;;;0.60;0.60;;;10.80;99.90;;;;;;5055906;28;20198;-88
2021/11/10 12:32:36;;;;;;;0.60;0.60;;;10.90;99.90;;;;;;5035593;28;20208;-88
2021/11/10 12:35:04;;;;;;;0.63;0.63;;;10.90;99.90;;;;;;5036969;28;20240;-89
2021/11/10 12:37:34;;;;;;;0.60;0.60;;;11.00;99.90;;;;;;5037243;28;20518;-91
2021/11/10 12:40:14;;;;;;;1.00;0.93;;;11.00;99.90;;;;;;5037547;28;20205;-91
2021/11/10 12:43:32;;;;;;;0.70;0.70;;;10.90;99.90;;;;;;5037303;28;20691;-89
2021/11/10 12:46:05;;;;;;;0.95;0.95;;;10.80;99.90;;;;;;5035818;28;20634;-85
2021/11/10 12:48:37;;;;;;;0.50;0.50;;;10.80;99.90;;;;;;5035040;28;20205;-85
2021/11/10 12:51:22;;;;;;;0.50;0.50;;;10.70;99.90;;;;;;5036091;28;20694;-85
2021/11/10 12:53:54;;;;;;;0.60;0.60;;;10.60;99.90;;;;;;5053460;28;20559;-85
2021/11/10 12:56:41;;;;;;;1.42;1.23;;;10.50;99.90;;;;;;5034777;28;20270;-87
2021/11/10 12:59:09;;;;;;;1.17;1.08;;;10.40;99.90;;;;;;5035653;28;20233;-84
2021/11/10 13:01:36;;;;;;;1.85;1.50;;;10.30;99.90;;;;;;5036161;28;20213;-84